Terminal Aerodrome Forecast
Issued by NWS Portland, OR

Home | Current Version | Previous Version | Text Only | Print | Product List | Glossary On
Versions: 1 2 3 4 5 6 7 8 9 10 11 12 13 14 15 16 17 18 19 20 21 22 23 24 25
000
FTUS46 KPQR 291505 AAA
TAFPDX
TAF AMD
KPDX 291505Z 2915/3012 17012KT P6SM -RA BKN025 OVC040
     FM292100 19012KT P6SM -SHRA BKN025 BKN035 OVC045
     FM300400 25010KT P6SM -SHRA SCT025 BKN040=

USA.gov is the U.S. government's official web portal to all federal, state and local government web resources and services.